createdAt,value
2022-12-23T00:02:22.502Z,12.07
2022-12-23T00:04:49.715Z,13.02
2022-12-23T00:07:16.896Z,12.82
2022-12-23T00:09:44.571Z,12.93
2022-12-23T00:12:30.361Z,14.10
2022-12-23T00:15:06.859Z,13.77
2022-12-23T00:17:34.580Z,13.00
2022-12-23T00:20:02.022Z,13.02
2022-12-23T00:22:47.283Z,13.95
2022-12-23T00:25:14.536Z,12.25
2022-12-23T00:27:41.912Z,13.27
2022-12-23T00:30:10.480Z,13.70
2022-12-23T00:32:37.696Z,14.00
2022-12-23T00:35:05.052Z,13.02
2022-12-23T00:37:32.312Z,14.25
2022-12-23T00:40:17.608Z,12.73
2022-12-23T00:42:53.420Z,14.30
2022-12-23T00:45:20.752Z,14.32
2022-12-23T00:48:06.716Z,14.27
2022-12-23T00:50:36.555Z,13.20
2022-12-23T00:53:04.052Z,14.10
2022-12-23T00:55:31.756Z,12.93
2022-12-23T00:57:59.038Z,13.18
2022-12-23T01:00:45.356Z,14.10
2022-12-23T01:03:32.407Z,14.40
2022-12-23T01:06:00.319Z,13.77
2022-12-23T01:08:27.932Z,13.20
2022-12-23T01:10:55.364Z,13.25
2022-12-23T01:13:22.897Z,13.57
2022-12-23T01:15:49.680Z,13.73
2022-12-23T01:18:17.028Z,12.60
2022-12-23T01:20:44.212Z,12.93
2022-12-23T01:23:11.034Z,12.02
2022-12-23T01:25:38.388Z,13.50
2022-12-23T01:28:05.222Z,13.65
2022-12-23T01:30:32.515Z,13.10
2022-12-23T01:32:59.765Z,13.38
2022-12-23T01:35:26.579Z,12.45
2022-12-23T01:37:53.371Z,13.40
2022-12-23T01:40:20.605Z,13.40
2022-12-23T01:42:47.823Z,12.47
2022-12-23T01:45:18.391Z,14.00
2022-12-23T01:48:02.146Z,11.93
2022-12-23T01:50:49.187Z,12.95
2022-12-23T01:53:24.097Z,12.90
2022-12-23T01:56:06.190Z,11.87
2022-12-23T01:59:02.248Z,12.02
2022-12-23T02:01:48.790Z,12.98
2022-12-23T02:04:21.869Z,12.43
2022-12-23T02:07:09.376Z,12.63
2022-12-23T02:09:38.639Z,11.07
2022-12-23T02:12:14.054Z,10.52
2022-12-23T02:15:14.803Z,10.63
2022-12-23T02:17:53.638Z,10.88
2022-12-23T02:20:37.182Z,11.18
2022-12-23T02:23:29.092Z,13.00
2022-12-23T02:26:21.974Z,10.70
2022-12-23T02:29:07.518Z,12.38
2022-12-23T02:31:34.852Z,12.43
2022-12-23T02:34:39.803Z,13.75
2022-12-23T02:37:24.853Z,11.53
2022-12-23T02:40:06.653Z,10.10
2022-12-23T02:42:44.577Z,10.90
2022-12-23T02:45:34.526Z,9.20
2022-12-23T02:48:08.220Z,8.13
2022-12-23T02:50:38.225Z,7.57
2022-12-23T02:53:11.724Z,7.82
2022-12-23T02:55:41.900Z,7.25
2022-12-23T02:58:12.954Z,7.40
2022-12-23T03:00:41.769Z,6.88
2022-12-23T03:03:09.160Z,7.80
2022-12-23T03:05:45.069Z,7.45
2022-12-23T03:08:16.892Z,7.90
2022-12-23T03:10:55.637Z,7.90
2022-12-23T03:13:56.471Z,7.78
2022-12-23T03:16:24.261Z,7.40
2022-12-23T03:19:10.050Z,8.07
2022-12-23T03:22:05.127Z,7.78
2022-12-23T03:24:48.230Z,7.75
2022-12-23T03:27:43.021Z,8.45
2022-12-23T03:30:10.502Z,9.27
2022-12-23T03:32:46.059Z,8.23
2022-12-23T03:35:17.782Z,8.38
2022-12-23T03:37:48.709Z,8.73
2022-12-23T03:40:20.649Z,8.73
2022-12-23T03:42:54.284Z,8.87
2022-12-23T03:45:45.002Z,8.15
2022-12-23T03:48:32.633Z,7.50
2022-12-23T03:51:05.645Z,8.70
2022-12-23T03:53:37.696Z,8.40
2022-12-23T03:56:10.489Z,8.70
2022-12-23T03:58:46.041Z,8.73
2022-12-23T04:01:26.004Z,8.25
2022-12-23T04:04:06.334Z,8.27
2022-12-23T04:06:49.218Z,8.50
2022-12-23T04:09:22.149Z,8.67
2022-12-23T04:11:50.352Z,8.57
2022-12-23T04:14:21.816Z,8.02
2022-12-23T04:16:53.283Z,7.53
2022-12-23T04:19:20.552Z,8.88
2022-12-23T04:21:47.782Z,8.67
2022-12-23T04:24:15.061Z,8.43
2022-12-23T04:26:42.086Z,9.00
2022-12-23T04:29:09.315Z,8.38
2022-12-23T04:31:36.531Z,8.57
2022-12-23T04:34:03.498Z,8.63
2022-12-23T04:36:30.728Z,7.82
2022-12-23T04:38:58.142Z,9.18
2022-12-23T04:41:24.942Z,8.35
2022-12-23T04:43:53.248Z,9.25
2022-12-23T04:46:20.944Z,9.07
2022-12-23T04:48:48.220Z,8.98
2022-12-23T04:51:15.568Z,9.82
2022-12-23T04:53:42.555Z,10.23
2022-12-23T04:56:09.857Z,10.43
2022-12-23T04:58:37.091Z,10.37
2022-12-23T05:01:04.418Z,9.95
2022-12-23T05:03:31.970Z,10.57
2022-12-23T05:05:59.432Z,10.75
2022-12-23T05:08:26.802Z,9.43
2022-12-23T05:10:54.039Z,10.43
2022-12-23T05:13:21.281Z,10.85
2022-12-23T05:15:53.528Z,10.23
2022-12-23T05:18:21.713Z,10.65
2022-12-23T05:20:49.587Z,11.68
2022-12-23T05:23:16.868Z,11.07
2022-12-23T05:25:44.062Z,11.27
2022-12-23T05:28:12.049Z,9.90
2022-12-23T05:30:39.248Z,10.52
2022-12-23T05:33:06.463Z,11.48
2022-12-23T05:35:33.677Z,10.33
2022-12-23T05:38:03.172Z,10.88
2022-12-23T05:40:31.653Z,10.65
2022-12-23T05:42:59.987Z,10.10
2022-12-23T05:45:27.294Z,10.60
2022-12-23T05:47:54.544Z,10.47
2022-12-23T05:50:21.473Z,10.93
2022-12-23T05:52:49.508Z,10.65
2022-12-23T05:55:16.423Z,11.50
2022-12-23T05:57:43.407Z,10.43
2022-12-23T06:00:10.707Z,10.67
2022-12-23T06:02:40.918Z,11.80
2022-12-23T06:05:08.719Z,11.07
2022-12-23T06:07:36.065Z,10.65
2022-12-23T06:10:03.398Z,11.52
2022-12-23T06:12:30.635Z,11.60
2022-12-23T06:14:57.899Z,11.82
2022-12-23T06:17:25.232Z,11.88
2022-12-23T06:19:52.412Z,12.25
2022-12-23T06:22:21.720Z,11.18
2022-12-23T06:24:49.022Z,11.50
2022-12-23T06:27:16.593Z,12.18
2022-12-23T06:29:43.561Z,10.45
2022-12-23T06:32:10.838Z,12.18
2022-12-23T06:34:37.772Z,12.00
2022-12-23T06:37:05.155Z,11.07
2022-12-23T06:39:32.438Z,11.65
2022-12-23T06:41:59.331Z,11.40
2022-12-23T06:44:26.560Z,12.07
2022-12-23T06:46:53.786Z,12.18
2022-12-23T06:49:21.156Z,11.30
2022-12-23T06:51:47.916Z,11.82
2022-12-23T06:54:15.258Z,11.40
2022-12-23T06:56:42.055Z,11.02
2022-12-23T06:59:09.333Z,11.02
2022-12-23T07:01:36.854Z,12.50
2022-12-23T07:04:03.872Z,11.75
2022-12-23T07:06:31.191Z,12.10
2022-12-23T07:08:58.420Z,12.10
2022-12-23T07:11:25.636Z,11.73
2022-12-23T07:13:52.987Z,12.53
2022-12-23T07:16:20.319Z,12.65
2022-12-23T07:18:47.577Z,13.75
2022-12-23T07:21:22.912Z,12.55
2022-12-23T07:23:53.843Z,12.48
2022-12-23T07:26:21.458Z,13.23
2022-12-23T07:28:49.019Z,28.67
2022-12-23T07:31:16.447Z,14.38
2022-12-23T07:33:43.894Z,12.38
2022-12-23T07:36:11.129Z,13.88
2022-12-23T07:38:38.552Z,12.90
2022-12-23T07:41:05.858Z,13.93
2022-12-23T07:43:33.119Z,13.63
2022-12-23T07:46:01.266Z,14.02
2022-12-23T07:48:28.557Z,15.27
2022-12-23T07:51:02.110Z,13.53
2022-12-23T07:53:29.690Z,15.02
2022-12-23T07:55:57.191Z,14.32
2022-12-23T07:58:24.876Z,17.42
2022-12-23T08:00:58.574Z,16.60
2022-12-23T08:03:26.106Z,14.90
2022-12-23T08:06:04.448Z,15.82
2022-12-23T08:08:32.504Z,13.20
2022-12-23T08:11:01.392Z,13.65
2022-12-23T08:13:28.607Z,16.17
2022-12-23T08:16:00.779Z,13.60
2022-12-23T08:18:31.281Z,14.57
2022-12-23T08:21:00.540Z,13.77
2022-12-23T08:23:28.793Z,14.88
2022-12-23T08:26:03.842Z,12.13
2022-12-23T08:28:31.523Z,13.70
2022-12-23T08:31:31.944Z,13.98
2022-12-23T08:34:00.557Z,14.20
2022-12-23T08:36:35.399Z,17.27
2022-12-23T08:39:05.948Z,14.02
2022-12-23T08:41:36.653Z,15.33
2022-12-23T08:44:04.563Z,13.00
2022-12-23T08:46:31.894Z,14.90
2022-12-23T08:48:59.254Z,12.82
2022-12-23T08:51:27.748Z,12.50
2022-12-23T08:54:00.509Z,13.37
2022-12-23T08:56:31.257Z,12.27
2022-12-23T08:58:58.648Z,13.65
2022-12-23T09:01:28.887Z,13.65
2022-12-23T09:03:56.244Z,13.07
2022-12-23T09:06:29.534Z,14.23
2022-12-23T09:08:58.016Z,14.95
2022-12-23T09:11:27.974Z,15.52
2022-12-23T09:13:55.361Z,14.32
2022-12-23T09:16:23.236Z,15.68
2022-12-23T09:18:50.568Z,14.37
2022-12-23T09:21:22.880Z,23.98
2022-12-23T09:23:50.412Z,13.85
2022-12-23T09:26:20.321Z,14.57
2022-12-23T09:28:47.557Z,13.65
2022-12-23T09:31:15.278Z,14.20
2022-12-23T09:33:42.740Z,17.50
2022-12-23T09:36:10.105Z,14.27
2022-12-23T09:38:38.351Z,10.60
2022-12-23T09:41:50.053Z,16.45
2022-12-23T09:44:35.572Z,13.60
2022-12-23T09:47:10.334Z,12.48
2022-12-23T09:49:44.658Z,13.00
2022-12-23T09:52:16.282Z,34.35
2022-12-23T09:54:48.388Z,19.27
2022-12-23T09:57:36.466Z,15.70
2022-12-23T10:00:18.747Z,15.70
2022-12-23T10:03:04.421Z,19.17
2022-12-23T10:05:57.109Z,15.68
2022-12-23T10:08:45.024Z,10.73
2022-12-23T10:11:31.258Z,10.47
2022-12-23T10:14:14.332Z,14.43
2022-12-23T10:16:58.113Z,10.38
2022-12-23T10:19:46.786Z,10.63
2022-12-23T10:22:35.760Z,10.68
2022-12-23T10:25:05.575Z,10.20
2022-12-23T10:27:38.860Z,12.68
2022-12-23T10:30:42.476Z,14.38
2022-12-23T10:33:23.758Z,10.25
2022-12-23T10:36:01.132Z,14.77
2022-12-23T10:38:28.475Z,11.40
2022-12-23T10:41:10.525Z,12.70
2022-12-23T10:43:52.399Z,13.48
2022-12-23T10:46:55.078Z,23.77
2022-12-23T10:49:22.314Z,14.88
2022-12-23T10:51:49.666Z,12.47
2022-12-23T10:54:26.613Z,14.60
2022-12-23T10:56:54.281Z,14.82
2022-12-23T10:59:27.190Z,15.35
2022-12-23T11:02:12.476Z,13.38
2022-12-23T11:04:40.961Z,14.70
2022-12-23T11:07:42.878Z,12.80
2022-12-23T11:10:13.365Z,14.57
2022-12-23T11:12:43.857Z,16.63
2022-12-23T11:15:28.436Z,18.77
2022-12-23T11:18:12.277Z,19.90
2022-12-23T11:20:41.400Z,14.85
2022-12-23T11:23:28.647Z,17.63
2022-12-23T11:26:18.697Z,17.73
2022-12-23T11:28:52.160Z,15.82
2022-12-23T11:31:35.277Z,13.43
2022-12-23T11:34:33.110Z,16.58
2022-12-23T11:37:05.444Z,17.73
2022-12-23T11:39:36.795Z,18.52
2022-12-23T11:42:24.577Z,18.15
2022-12-23T11:44:54.698Z,18.43
2022-12-23T11:47:38.936Z,19.42
2022-12-23T11:50:26.443Z,18.63
2022-12-23T11:52:56.847Z,16.60
2022-12-23T11:55:26.034Z,19.40
2022-12-23T11:57:53.599Z,18.07
2022-12-23T12:00:21.135Z,18.02
2022-12-23T12:02:54.725Z,16.58
2022-12-23T12:05:49.626Z,19.60
2022-12-23T12:08:21.428Z,18.95
2022-12-23T12:10:52.596Z,18.97
2022-12-23T12:13:28.483Z,17.95
2022-12-23T12:16:22.618Z,16.20
2022-12-23T12:18:55.437Z,15.68
2022-12-23T12:21:30.741Z,19.20
2022-12-23T12:24:20.046Z,18.37
2022-12-23T12:26:51.442Z,17.85
2022-12-23T12:29:40.313Z,18.63
2022-12-23T12:32:19.680Z,18.17
2022-12-23T12:35:03.830Z,16.88
2022-12-23T12:37:59.448Z,16.50
2022-12-23T12:40:47.345Z,16.13
2022-12-23T12:43:31.637Z,21.35
2022-12-23T12:45:58.967Z,16.08
2022-12-23T12:48:53.355Z,14.98
2022-12-23T12:51:40.773Z,14.10
2022-12-23T12:54:37.628Z,13.77
2022-12-23T12:57:05.011Z,14.23
2022-12-23T12:59:35.425Z,12.93
2022-12-23T13:02:30.555Z,14.30
2022-12-23T13:05:31.048Z,13.83
2022-12-23T13:08:07.501Z,13.80
2022-12-23T13:10:49.732Z,32.08
2022-12-23T13:13:26.300Z,29.65
2022-12-23T13:16:02.734Z,27.15
2022-12-23T13:18:36.106Z,19.00
2022-12-23T13:21:03.319Z,14.45
2022-12-23T13:23:48.157Z,30.10
2022-12-23T13:27:04.767Z,14.23
2022-12-23T13:29:58.238Z,18.08
2022-12-23T13:32:49.784Z,11.93
2022-12-23T13:35:42.768Z,12.52
2022-12-23T13:38:25.127Z,14.60
2022-12-23T13:41:11.251Z,14.07
2022-12-23T13:43:47.479Z,15.05
2022-12-23T13:46:24.106Z,12.97
2022-12-23T13:49:03.315Z,19.65
2022-12-23T13:51:37.192Z,13.80
2022-12-23T13:54:22.966Z,12.20
2022-12-23T13:57:08.459Z,12.40
2022-12-23T13:59:40.537Z,16.63
2022-12-23T14:02:36.406Z,12.25
2022-12-23T14:05:26.849Z,12.40
2022-12-23T14:07:54.698Z,10.68
2022-12-23T14:10:24.212Z,11.27
2022-12-23T14:12:53.145Z,10.80
2022-12-23T14:15:20.468Z,10.95
2022-12-23T14:18:00.931Z,21.92
2022-12-23T14:20:52.343Z,11.82
2022-12-23T14:23:52.200Z,14.25
2022-12-23T14:26:47.705Z,16.17
2022-12-23T14:29:41.283Z,17.73
2022-12-23T14:32:27.390Z,19.90
2022-12-23T14:35:19.064Z,11.23
2022-12-23T14:38:10.691Z,10.48
2022-12-23T14:40:37.897Z,18.63
2022-12-23T14:43:25.234Z,10.68
2022-12-23T14:45:52.467Z,22.30
2022-12-23T14:48:34.466Z,11.82
2022-12-23T14:51:03.965Z,11.63
2022-12-23T14:53:33.342Z,11.63
2022-12-23T14:56:18.189Z,12.10
2022-12-23T14:59:10.671Z,13.10
2022-12-23T15:01:58.775Z,10.57
2022-12-23T15:04:54.650Z,11.20
2022-12-23T15:07:40.815Z,13.10
2022-12-23T15:10:17.458Z,12.13
2022-12-23T15:12:49.491Z,10.02
2022-12-23T15:15:19.715Z,11.13
2022-12-23T15:17:47.258Z,11.13
2022-12-23T15:20:23.106Z,15.17
2022-12-23T15:22:50.909Z,10.93
2022-12-23T15:25:24.333Z,11.10
2022-12-23T15:28:00.865Z,10.57
2022-12-23T15:30:47.259Z,15.77
2022-12-23T15:36:32.297Z,12.70
2022-12-23T15:39:01.560Z,12.82
2022-12-23T15:41:29.218Z,19.92
2022-12-23T15:43:58.107Z,20.30
2022-12-23T15:46:30.072Z,11.97
2022-12-23T15:48:57.909Z,11.90
2022-12-23T15:52:07.078Z,12.23
2022-12-23T15:54:40.005Z,15.65
2022-12-23T15:57:07.334Z,11.90
2022-12-23T15:59:38.261Z,14.67
2022-12-23T16:05:34.254Z,13.77
2022-12-23T16:08:28.669Z,14.40
2022-12-23T16:10:57.319Z,12.13
2022-12-23T16:13:24.896Z,9.57
2022-12-23T16:15:52.265Z,9.55
2022-12-23T16:18:31.719Z,9.38
2022-12-23T16:20:59.105Z,9.35
2022-12-23T16:23:30.629Z,9.52
2022-12-23T16:26:00.384Z,9.93
2022-12-23T16:28:45.837Z,9.85
2022-12-23T16:31:16.708Z,10.95
2022-12-23T16:33:58.234Z,11.90
2022-12-23T16:36:28.027Z,11.00
2022-12-23T16:39:07.036Z,12.87
2022-12-23T16:41:35.102Z,12.75
2022-12-23T16:44:02.871Z,15.52
2022-12-23T16:46:36.580Z,11.98
2022-12-23T16:49:06.690Z,11.40
2022-12-23T16:51:34.422Z,12.20
2022-12-23T16:54:02.121Z,11.13
2022-12-23T16:56:35.999Z,12.60
2022-12-23T16:59:03.688Z,14.93
2022-12-23T17:01:33.886Z,11.75
2022-12-23T17:04:01.380Z,12.57
2022-12-23T17:06:28.659Z,22.15
2022-12-23T17:08:57.012Z,12.00
2022-12-23T17:11:29.902Z,13.05
2022-12-23T17:14:03.923Z,11.32
2022-12-23T17:16:33.747Z,11.33
2022-12-23T17:19:01.172Z,16.08
2022-12-23T17:21:34.988Z,13.20
2022-12-23T17:24:24.481Z,11.52
2022-12-23T17:26:52.649Z,13.90
2022-12-23T17:29:20.348Z,11.87
2022-12-23T17:31:49.537Z,15.50
2022-12-23T17:34:22.172Z,12.27
2022-12-23T17:36:50.988Z,11.45
2022-12-23T17:39:21.082Z,14.65
2022-12-23T17:41:48.746Z,12.57
2022-12-23T17:44:16.911Z,11.65
2022-12-23T17:46:45.385Z,12.45
2022-12-23T17:49:12.964Z,10.88
2022-12-23T17:51:42.562Z,11.23
2022-12-23T17:54:22.918Z,9.30
2022-12-23T17:56:51.039Z,8.23
2022-12-23T17:59:17.959Z,9.52
2022-12-23T18:01:45.440Z,8.63
2022-12-23T18:04:12.730Z,5.95
2022-12-23T18:06:40.160Z,7.63
2022-12-23T18:09:07.686Z,5.72
2022-12-23T18:11:41.849Z,7.07
2022-12-23T18:14:17.492Z,6.00
2022-12-23T18:16:45.148Z,7.65
2022-12-23T18:19:18.124Z,7.13
2022-12-23T18:21:46.116Z,6.32
2022-12-23T18:24:13.373Z,7.60
2022-12-23T18:26:41.208Z,5.15
2022-12-23T18:29:08.663Z,6.85
2022-12-23T18:31:37.601Z,7.77
2022-12-23T18:34:04.915Z,5.85
2022-12-23T18:36:33.915Z,7.18
2022-12-23T18:39:00.963Z,5.70
2022-12-23T18:41:28.356Z,5.85
2022-12-23T18:43:55.677Z,5.03
2022-12-23T18:46:23.026Z,6.30
2022-12-23T18:48:51.880Z,5.40
2022-12-23T18:51:21.168Z,6.47
2022-12-23T18:53:48.670Z,6.40
2022-12-23T18:56:19.185Z,4.83
2022-12-23T18:58:46.570Z,5.80
2022-12-23T19:01:15.010Z,6.15
2022-12-23T19:03:42.825Z,6.05
2022-12-23T19:06:13.299Z,6.53
2022-12-23T19:08:41.320Z,7.37
2022-12-23T19:11:20.250Z,6.90
2022-12-23T19:13:47.740Z,5.75
2022-12-23T19:16:21.096Z,5.70
2022-12-23T19:18:49.324Z,5.57
2022-12-23T19:21:17.832Z,6.50
2022-12-23T19:23:45.282Z,6.28
2022-12-23T19:26:14.854Z,4.68
2022-12-23T19:28:42.501Z,6.60
2022-12-23T19:31:15.017Z,5.68
2022-12-23T19:33:43.682Z,5.07
2022-12-23T19:36:15.855Z,4.85
2022-12-23T19:38:43.116Z,5.25
2022-12-23T19:41:10.390Z,7.80
2022-12-23T19:43:38.532Z,6.63
2022-12-23T19:46:09.809Z,5.27
2022-12-23T19:48:37.475Z,5.13
2022-12-23T19:51:13.339Z,5.97
2022-12-23T19:53:41.965Z,6.43
2022-12-23T19:56:12.623Z,5.97
2022-12-23T19:58:41.505Z,4.90
2022-12-23T20:01:23.998Z,6.10
2022-12-23T20:03:52.569Z,7.07
2022-12-23T20:06:35.096Z,6.00
2022-12-23T20:09:06.558Z,4.60
2022-12-23T20:11:39.444Z,6.63
2022-12-23T20:14:07.007Z,5.43
2022-12-23T20:16:34.637Z,6.00
2022-12-23T20:19:02.333Z,5.57
2022-12-23T20:21:29.696Z,7.70
2022-12-23T20:23:57.102Z,5.07
2022-12-23T20:26:24.377Z,5.15
2022-12-23T20:28:51.935Z,4.15
2022-12-23T20:31:28.027Z,4.25
2022-12-23T20:33:57.282Z,3.80
2022-12-23T20:36:35.193Z,3.37
2022-12-23T20:39:04.181Z,5.22
2022-12-23T20:41:32.651Z,4.72
2022-12-23T20:44:33.418Z,3.22
2022-12-23T20:46:48.096Z,2.80
2022-12-23T20:49:15.406Z,3.93
2022-12-23T20:51:42.887Z,4.80
2022-12-23T20:54:10.245Z,5.38
2022-12-23T20:56:37.628Z,3.67
2022-12-23T20:59:05.015Z,5.10
2022-12-23T21:01:38.190Z,4.97
2022-12-23T21:04:16.046Z,4.43
2022-12-23T21:06:43.689Z,4.70
2022-12-23T21:09:13.218Z,4.28
2022-12-23T21:11:43.346Z,5.50
2022-12-23T21:14:11.941Z,4.43
2022-12-23T21:16:39.478Z,4.97
2022-12-23T21:19:08.568Z,3.58
2022-12-23T21:21:35.917Z,4.05
2022-12-23T21:24:04.731Z,4.00
2022-12-23T21:26:33.589Z,4.20
2022-12-23T21:29:02.236Z,4.43
2022-12-23T21:31:30.936Z,5.07
2022-12-23T21:33:58.536Z,4.50
2022-12-23T21:36:28.103Z,3.67
2022-12-23T21:38:55.529Z,3.47
2022-12-23T21:41:25.595Z,3.92
2022-12-23T21:43:52.993Z,4.22
2022-12-23T21:46:22.460Z,3.80
2022-12-23T21:48:52.747Z,3.75
2022-12-23T21:51:25.572Z,3.87
2022-12-23T21:53:54.214Z,4.70
2022-12-23T21:56:25.061Z,3.42
2022-12-23T21:59:00.298Z,3.33
2022-12-23T22:01:27.780Z,3.95
2022-12-23T22:03:55.545Z,4.23
2022-12-23T22:06:24.585Z,3.35
2022-12-23T22:08:53.156Z,3.72
2022-12-23T22:11:25.806Z,3.97
2022-12-23T22:13:53.383Z,3.33
2022-12-23T22:16:22.554Z,2.30
2022-12-23T22:18:50.633Z,3.65
2022-12-23T22:21:23.017Z,3.25
2022-12-23T22:23:50.913Z,3.58
2022-12-23T22:26:25.820Z,3.75
2022-12-23T22:28:55.640Z,3.17
2022-12-23T22:31:50.201Z,3.78
2022-12-23T22:34:20.547Z,3.83
2022-12-23T22:36:48.154Z,3.35
2022-12-23T22:39:21.119Z,3.75
2022-12-23T22:41:50.545Z,3.60
2022-12-23T22:44:18.090Z,4.05
2022-12-23T22:46:45.629Z,5.38
2022-12-23T22:49:13.296Z,5.15
2022-12-23T22:51:41.360Z,4.45
2022-12-23T22:54:09.178Z,3.63
2022-12-23T22:56:36.611Z,4.38
2022-12-23T22:59:04.747Z,3.88
2022-12-23T23:01:34.525Z,3.25
2022-12-23T23:04:03.459Z,3.97
2022-12-23T23:06:33.968Z,3.27
2022-12-23T23:09:01.376Z,4.10
2022-12-23T23:11:29.136Z,4.13
2022-12-23T23:13:56.925Z,3.33
2022-12-23T23:16:24.738Z,3.45
2022-12-23T23:18:53.049Z,3.37
2022-12-23T23:21:20.856Z,4.95
2022-12-23T23:23:48.453Z,4.70
2022-12-23T23:26:15.706Z,3.35
2022-12-23T23:28:43.555Z,4.10
2022-12-23T23:33:58.502Z,3.83
2022-12-23T23:36:25.829Z,3.80
2022-12-23T23:38:53.175Z,3.47
2022-12-23T23:41:23.278Z,4.20
2022-12-23T23:43:51.526Z,3.37
2022-12-23T23:46:19.328Z,3.97
2022-12-23T23:48:46.737Z,3.92
2022-12-23T23:51:14.227Z,3.97
2022-12-23T23:53:41.489Z,4.13
2022-12-23T23:56:08.992Z,4.73
2022-12-23T23:58:37.438Z,6.55
